Time;durP1;ratioP1;P1;durP2;ratioP2;P2;SDS_P1;SDS_P2;PMS_P1;PMS_P2;Temp;Humidity;BMP_temperature;BMP_pressure;BME280_temperature;BME280_humidity;BME280_pressure;Samples;Min_cycle;Max_cycle;Signal;HPM_P1;HPM_P2
2023/06/02 00:01:58;;;;;;;13.20;4.70;;;;;;;;;;110426;1256;22693;-77
2023/06/02 00:04:26;;;;;;;10.90;4.70;;;;;;;;;;110313;1277;21977;-77
2023/06/02 00:07:00;;;;;;;12.00;5.00;;;;;;;;;;110227;1277;22098;-77
2023/06/02 00:09:27;;;;;;;10.80;5.00;;;;;;;;;;110308;1277;22137;-77
2023/06/02 00:11:58;;;;;;;9.90;4.60;;;;;;;;;;110513;1260;22170;-77
2023/06/02 00:14:33;;;;;;;11.10;4.70;;;;;;;;;;110452;1277;22106;-79
2023/06/02 00:17:05;;;;;;;10.80;4.60;;;;;;;;;;110294;1277;22133;-77
2023/06/02 00:19:33;;;;;;;11.20;5.60;;;;;;;;;;110298;1277;22132;-78
2023/06/02 00:22:03;;;;;;;11.00;4.80;;;;;;;;;;110576;1256;22181;-78
2023/06/02 00:24:33;;;;;;;13.30;5.10;;;;;;;;;;110186;1277;22827;-78
2023/06/02 00:27:10;;;;;;;12.30;5.20;;;;;;;;;;110221;1277;22954;-77
2023/06/02 00:29:41;;;;;;;12.00;4.80;;;;;;;;;;110314;1277;22119;-78
2023/06/02 00:32:09;;;;;;;13.60;5.10;;;;;;;;;;110661;1258;22133;-78
2023/06/02 00:34:36;;;;;;;11.20;4.40;;;;;;;;;;110287;1277;22843;-77
2023/06/02 00:37:03;;;;;;;11.00;4.00;;;;;;;;;;110308;1277;21968;-78
2023/06/02 00:39:31;;;;;;;11.10;4.20;;;;;;;;;;110302;1277;22823;-78
2023/06/02 00:41:59;;;;;;;10.50;3.90;;;;;;;;;;110577;1256;22977;-77
2023/06/02 00:44:27;;;;;;;10.10;4.20;;;;;;;;;;110315;1277;22128;-78
2023/06/02 00:47:00;;;;;;;15.60;5.00;;;;;;;;;;110493;1277;22136;-78
2023/06/02 00:49:30;;;;;;;11.30;5.20;;;;;;;;;;110260;1277;22208;-78
2023/06/02 00:52:00;;;;;;;10.70;5.10;;;;;;;;;;110360;1259;22158;-78
2023/06/02 00:54:29;;;;;;;13.00;5.20;;;;;;;;;;110434;1278;22827;-78
2023/06/02 00:56:58;;;;;;;12.40;5.20;;;;;;;;;;110188;1277;22118;-78
2023/06/02 00:59:27;;;;;;;9.90;4.90;;;;;;;;;;110427;1277;22753;-79
2023/06/02 01:01:56;;;;;;;14.30;5.60;;;;;;;;;;110304;1259;22282;-78
2023/06/02 01:04:28;;;;;;;11.60;5.50;;;;;;;;;;110176;1278;22089;-78
2023/06/02 01:07:00;;;;;;;10.40;4.90;;;;;;;;;;110168;1278;22128;-78
2023/06/02 01:09:30;;;;;;;11.90;5.00;;;;;;;;;;110153;1277;22098;-78
2023/06/02 01:12:01;;;;;;;9.70;4.30;;;;;;;;;;110217;1262;22108;-79
2023/06/02 01:14:31;;;;;;;13.00;4.70;;;;;;;;;;110219;1276;22109;-78
2023/06/02 01:17:03;;;;;;;11.60;5.20;;;;;;;;;;110192;1277;22205;-78
2023/06/02 01:19:37;;;;;;;10.00;4.80;;;;;;;;;;110151;1278;22566;-78
2023/06/02 01:22:08;;;;;;;10.40;5.00;;;;;;;;;;110422;1258;22143;-78
2023/06/02 01:24:39;;;;;;;12.30;5.30;;;;;;;;;;110349;1277;22198;-78
2023/06/02 01:27:11;;;;;;;14.20;5.70;;;;;;;;;;110327;1272;22920;-79
2023/06/02 01:29:41;;;;;;;11.50;4.60;;;;;;;;;;110217;1278;22305;-78
2023/06/02 01:32:38;;;;;;;11.20;5.20;;;;;;;;;;110394;1260;22274;-78
2023/06/02 01:35:10;;;;;;;13.90;5.40;;;;;;;;;;110216;1278;22087;-79
2023/06/02 01:37:44;;;;;;;12.70;5.20;;;;;;;;;;110268;1277;22153;-79
2023/06/02 01:40:14;;;;;;;15.10;5.50;;;;;;;;;;110178;1270;22194;-79
2023/06/02 01:42:47;;;;;;;10.50;5.20;;;;;;;;;;110599;1256;22129;-79
2023/06/02 01:45:48;;;;;;;11.10;4.70;;;;;;;;;;110343;1278;22154;-78
2023/06/02 01:55:24;;;;;;;9.70;4.90;;;;;;;;;;103910;1292;545094;-87
2023/06/02 01:58:08;;;;;;;11.30;5.60;;;;;;;;;;106089;1279;22623;-80
2023/06/02 02:01:00;;;;;;;12.60;6.10;;;;;;;;;;106116;1287;25326;-84
2023/06/02 02:03:37;;;;;;;12.80;6.20;;;;;;;;;;106388;1287;22613;-82
2023/06/02 02:06:15;;;;;;;17.60;6.20;;;;;;;;;;106393;1277;22594;-78
2023/06/02 02:08:41;;;;;;;12.70;6.20;;;;;;;;;;102220;1285;5373120;-86
2023/06/02 02:11:14;;;;;;;14.00;6.10;;;;;;;;;;106476;1285;25331;-79
2023/06/02 02:13:51;;;;;;;13.80;5.60;;;;;;;;;;106453;1285;25353;-82
2023/06/02 02:16:51;;;;;;;15.80;5.30;;;;;;;;;;107084;1257;22515;-82
2023/06/02 02:19:42;;;;;;;10.50;4.60;;;;;;;;;;107075;1276;24278;-80
2023/06/02 02:22:18;;;;;;;12.20;5.60;;;;;;;;;;106993;1276;24253;-85
2023/06/02 02:24:56;;;;;;;11.90;5.90;;;;;;;;;;106963;1276;25278;-81
2023/06/02 02:27:30;;;;;;;12.50;5.70;;;;;;;;;;106981;1276;23863;-85
2023/06/02 02:30:09;;;;;;;10.70;5.20;;;;;;;;;;107113;1276;22559;-84
2023/06/02 02:32:49;;;;;;;;;;;;;;;;;;;;;
2023/06/02 02:35:50;;;;;;;12.90;6.10;;;;;;;;;;107113;1255;22579;-81
2023/06/02 02:38:55;;;;;;;11.40;5.80;;;;;;;;;;106972;1276;23912;-85
2023/06/02 02:41:31;;;;;;;16.30;6.40;;;;;;;;;;107028;1276;22520;-80
2023/06/02 02:44:25;;;;;;;13.80;5.90;;;;;;;;;;107011;1276;25367;-79
2023/06/02 02:47:18;;;;;;;12.30;5.40;;;;;;;;;;106989;1257;25328;-80
2023/06/02 02:50:05;;;;;;;16.70;5.40;;;;;;;;;;107110;1276;22493;-82
2023/06/02 02:53:34;;;;;;;14.30;5.10;;;;;;;;;;106891;1276;24220;-80
2023/06/02 02:56:00;;;;;;;11.20;6.00;;;;;;;;;;106961;1260;26458;-82
2023/06/02 02:58:37;;;;;;;13.20;6.50;;;;;;;;;;107070;1276;22521;-85
2023/06/02 03:01:44;;;;;;;13.90;6.30;;;;;;;;;;106909;1276;22561;-80
2023/06/02 03:04:18;;;;;;;14.80;6.50;;;;;;;;;;107052;1276;22522;-84
2023/06/02 03:07:04;;;;;;;14.40;5.70;;;;;;;;;;106956;1261;22528;-82
2023/06/02 03:09:51;;;;;;;13.90;6.40;;;;;;;;;;107037;1276;24285;-85
2023/06/02 03:12:20;;;;;;;12.60;5.50;;;;;;;;;;107091;1274;22529;-82
2023/06/02 03:14:55;;;;;;;12.80;5.30;;;;;;;;;;107019;1276;22520;-80
2023/06/02 03:17:34;;;;;;;15.20;6.30;;;;;;;;;;106938;1276;25434;-81
2023/06/02 03:20:22;;;;;;;12.20;6.00;;;;;;;;;;106997;1276;24247;-85
2023/06/02 03:23:08;;;;;;;15.90;7.10;;;;;;;;;;106953;1276;22541;-83
2023/06/02 03:25:48;;;;;;;;;;;;;;;;;;;;;
2023/06/02 03:28:56;;;;;;;14.80;7.20;;;;;;;;;;106957;1276;25366;-81
2023/06/02 03:31:24;;;;;;;15.00;7.20;;;;;;;;;;106965;1276;22529;-83
2023/06/02 03:34:07;;;;;;;17.30;7.70;;;;;;;;;;106951;1276;25452;-80
2023/06/02 03:37:01;;;;;;;17.10;7.60;;;;;;;;;;106947;1254;25578;-83
2023/06/02 03:40:05;;;;;;;19.10;8.20;;;;;;;;;;106962;1276;24263;-81
2023/06/02 03:42:51;;;;;;;14.30;7.00;;;;;;;;;;106949;1276;24195;-80
2023/06/02 03:45:39;;;;;;;18.20;6.60;;;;;;;;;;106942;1276;23859;-84
2023/06/02 03:48:36;;;;;;;;;;;;;;;;;;;;;
2023/06/02 03:51:13;;;;;;;15.20;6.80;;;;;;;;;;106960;1276;25337;-80
2023/06/02 03:54:11;;;;;;;15.80;6.20;;;;;;;;;;106938;1262;22522;-79
2023/06/02 03:56:59;;;;;;;15.40;6.30;;;;;;;;;;107009;1276;23135;-82
2023/06/02 03:59:33;;;;;;;15.70;6.40;;;;;;;;;;107112;1259;24217;-82
2023/06/02 04:02:07;;;;;;;14.80;6.80;;;;;;;;;;106984;1276;22553;-81
2023/06/02 04:04:37;;;;;;;13.70;6.10;;;;;;;;;;106933;1276;23147;-82
2023/06/02 04:07:09;;;;;;;12.00;6.20;;;;;;;;;;106962;1276;23896;-79
2023/06/02 04:09:55;;;;;;;14.30;6.10;;;;;;;;;;106945;1254;22511;-84
2023/06/02 04:12:29;;;;;;;12.50;6.00;;;;;;;;;;106905;1276;22488;-86
2023/06/02 04:15:05;;;;;;;13.50;5.40;;;;;;;;;;106960;1276;22518;-79
2023/06/02 04:17:32;;;;;;;12.80;5.10;;;;;;;;;;106970;1276;25337;-80
2023/06/02 04:20:05;;;;;;;16.60;5.90;;;;;;;;;;106947;1260;25366;-83
2023/06/02 04:22:36;;;;;;;13.70;6.00;;;;;;;;;;106937;1276;22573;-82
2023/06/02 04:25:09;;;;;;;16.70;6.30;;;;;;;;;;106937;1276;22556;-80
2023/06/02 04:27:41;;;;;;;19.50;6.40;;;;;;;;;;106978;1276;24190;-85
2023/06/02 04:30:14;;;;;;;12.80;6.10;;;;;;;;;;106946;1276;25315;-83
2023/06/02 04:33:01;;;;;;;16.90;7.00;;;;;;;;;;106939;1276;25239;-84
2023/06/02 04:36:14;;;;;;;16.90;7.30;;;;;;;;;;106942;1276;22527;-84
2023/06/02 04:38:53;;;;;;;15.10;6.70;;;;;;;;;;106947;1258;25239;-79
2023/06/02 04:41:42;;;;;;;14.20;6.90;;;;;;;;;;106952;1276;25366;-81
2023/06/02 04:44:39;;;;;;;16.80;6.30;;;;;;;;;;106910;1276;22570;-84
2023/06/02 04:47:06;;;;;;;14.00;6.00;;;;;;;;;;106699;1276;22630;-79
2023/06/02 04:49:38;;;;;;;15.60;6.40;;;;;;;;;;106974;1254;22537;-83
2023/06/02 04:52:24;;;;;;;17.80;6.30;;;;;;;;;;106896;1276;22527;-83
2023/06/02 04:55:21;;;;;;;;;;;;;;;;;;;;;
2023/06/02 04:58:05;;;;;;;13.80;6.70;;;;;;;;;;106916;1276;23915;-83
2023/06/02 05:00:47;;;;;;;14.70;6.50;;;;;;;;;;106972;1257;24342;-80
2023/06/02 05:04:02;;;;;;;14.90;7.00;;;;;;;;;;106972;1276;26471;-78
2023/06/02 05:06:44;;;;;;;19.40;7.20;;;;;;;;;;106966;1276;25351;-84
2023/06/02 05:09:19;;;;;;;13.40;6.80;;;;;;;;;;106836;1257;22518;-82
2023/06/02 05:12:29;;;;;;;15.40;6.10;;;;;;;;;;106998;1276;24346;-83
2023/06/02 05:15:21;;;;;;;17.50;6.90;;;;;;;;;;106966;1276;24218;-80
2023/06/02 05:18:19;;;;;;;;;;;;;;;;;;;;;
2023/06/02 05:21:11;;;;;;;14.40;5.90;;;;;;;;;;106815;1262;22523;-82
2023/06/02 05:23:48;;;;;;;12.70;5.00;;;;;;;;;;106829;1270;25351;-80
2023/06/02 05:26:34;;;;;;;17.20;5.50;;;;;;;;;;106890;1273;25636;-81
2023/06/02 05:29:10;;;;;;;12.30;5.90;;;;;;;;;;110110;1257;22353;-78
2023/06/02 05:31:37;;;;;;;14.10;5.80;;;;;;;;;;110116;1278;22098;-79
2023/06/02 05:34:21;;;;;;;16.10;5.10;;;;;;;;;;110119;1278;22414;-80
2023/06/02 05:36:58;;;;;;;14.90;5.40;;;;;;;;;;110157;1278;22905;-78
2023/06/02 05:39:38;;;;;;;14.10;5.80;;;;;;;;;;110417;1257;22139;-79
2023/06/02 05:42:08;;;;;;;12.90;5.20;;;;;;;;;;110291;1278;22182;-79
2023/06/02 05:44:37;;;;;;;12.80;5.10;;;;;;;;;;110158;1278;22390;-79
2023/06/02 05:47:08;;;;;;;12.60;4.70;;;;;;;;;;110291;1278;22823;-80
2023/06/02 05:49:55;;;;;;;12.80;4.60;;;;;;;;;;110265;1256;22147;-79
2023/06/02 05:52:38;;;;;;;13.60;3.80;;;;;;;;;;110618;1275;22808;-78
2023/06/02 05:55:08;;;;;;;11.30;4.30;;;;;;;;;;110623;1275;22604;-78
2023/06/02 05:57:47;;;;;;;10.50;4.70;;;;;;;;;;110508;1275;22181;-79
2023/06/02 06:00:31;;;;;;;12.90;4.80;;;;;;;;;;110604;1256;22124;-79
2023/06/02 06:03:10;;;;;;;15.30;5.10;;;;;;;;;;110478;1275;22112;-78
2023/06/02 06:05:45;;;;;;;12.90;5.40;;;;;;;;;;110474;1275;22125;-78
2023/06/02 06:08:17;;;;;;;11.30;5.00;;;;;;;;;;110462;1276;22130;-79
2023/06/02 06:10:45;;;;;;;15.50;5.70;;;;;;;;;;110717;1253;22113;-78
2023/06/02 06:13:21;;;;;;;16.70;5.50;;;;;;;;;;110477;1275;22134;-79
2023/06/02 06:16:15;;;;;;;11.80;4.90;;;;;;;;;;110631;1275;22092;-81
2023/06/02 06:18:50;;;;;;;16.00;5.60;;;;;;;;;;110477;1275;22108;-79
2023/06/02 06:21:24;;;;;;;10.60;4.70;;;;;;;;;;110898;1254;23079;-78
2023/06/02 06:23:53;;;;;;;15.00;5.40;;;;;;;;;;110488;1270;22124;-78
2023/06/02 06:26:32;;;;;;;11.70;4.60;;;;;;;;;;110475;1275;21929;-79
2023/06/02 06:29:04;;;;;;;9.50;4.00;;;;;;;;;;110500;1275;22120;-78
2023/06/02 06:31:36;;;;;;;15.40;4.90;;;;;;;;;;110778;1257;22078;-77
2023/06/02 06:34:13;;;;;;;12.10;4.80;;;;;;;;;;110481;1275;22174;-77
2023/06/02 06:36:40;;;;;;;16.60;5.20;;;;;;;;;;110417;1275;22142;-77
2023/06/02 06:39:18;;;;;;;12.20;4.70;;;;;;;;;;110513;1275;22102;-79
2023/06/02 06:41:45;;;;;;;14.70;5.20;;;;;;;;;;110611;1256;22125;-78
2023/06/02 06:44:26;;;;;;;15.90;4.80;;;;;;;;;;110513;1275;22104;-78
2023/06/02 06:46:53;;;;;;;11.10;4.60;;;;;;;;;;110515;1275;22311;-80
2023/06/02 06:49:21;;;;;;;16.40;5.00;;;;;;;;;;110435;1276;22193;-79
2023/06/02 06:51:48;;;;;;;13.00;4.80;;;;;;;;;;110516;1254;22164;-78
2023/06/02 06:54:15;;;;;;;12.70;4.30;;;;;;;;;;110636;1276;22317;-78
2023/06/02 06:56:43;;;;;;;11.10;4.30;;;;;;;;;;110376;1276;22103;-78
2023/06/02 06:59:10;;;;;;;14.10;4.50;;;;;;;;;;110455;1276;22090;-78
2023/06/02 07:01:40;;;;;;;15.30;5.00;;;;;;;;;;110642;1253;22125;-78
2023/06/02 07:04:12;;;;;;;13.40;4.60;;;;;;;;;;110432;1276;22118;-79
2023/06/02 07:06:39;;;;;;;14.10;4.60;;;;;;;;;;110483;1275;22076;-78
2023/06/02 07:09:08;;;;;;;10.10;4.20;;;;;;;;;;110503;1276;22834;-78
2023/06/02 07:11:35;;;;;;;11.90;4.70;;;;;;;;;;110473;1256;22880;-80
2023/06/02 07:14:02;;;;;;;12.70;4.30;;;;;;;;;;110473;1276;22326;-81
2023/06/02 07:16:29;;;;;;;11.30;4.00;;;;;;;;;;110439;1276;21907;-81
2023/06/02 07:18:55;;;;;;;13.80;3.70;;;;;;;;;;110456;1276;22955;-80
2023/06/02 07:21:22;;;;;;;8.30;3.10;;;;;;;;;;110435;1253;22222;-79
2023/06/02 07:23:49;;;;;;;10.70;4.00;;;;;;;;;;110366;1276;22149;-81
2023/06/02 07:26:16;;;;;;;10.80;3.80;;;;;;;;;;110490;1276;22108;-78
2023/06/02 07:28:43;;;;;;;12.70;4.00;;;;;;;;;;110481;1276;22119;-78
2023/06/02 07:31:17;;;;;;;11.50;4.50;;;;;;;;;;110627;1276;22205;-79
2023/06/02 07:33:45;;;;;;;14.30;3.50;;;;;;;;;;110772;1259;22826;-80
2023/06/02 07:36:14;;;;;;;12.50;3.40;;;;;;;;;;110504;1276;22092;-77
2023/06/02 07:38:41;;;;;;;10.70;3.60;;;;;;;;;;110666;1276;22147;-77
2023/06/02 07:41:08;;;;;;;10.20;3.80;;;;;;;;;;110420;1276;21736;-78
2023/06/02 07:43:35;;;;;;;14.30;4.00;;;;;;;;;;110758;1257;22103;-78
2023/06/02 07:46:04;;;;;;;11.90;3.50;;;;;;;;;;110622;1276;22168;-78
2023/06/02 07:48:39;;;;;;;10.50;3.10;;;;;;;;;;110427;1276;22117;-79
2023/06/02 07:51:06;;;;;;;11.80;3.60;;;;;;;;;;110454;1276;22131;-78
2023/06/02 07:53:33;;;;;;;11.50;3.60;;;;;;;;;;110792;1256;22126;-80
2023/06/02 07:56:00;;;;;;;9.50;3.40;;;;;;;;;;110206;1276;22106;-78
2023/06/02 07:58:26;;;;;;;12.10;3.60;;;;;;;;;;110363;1276;22892;-77
2023/06/02 08:00:53;;;;;;;12.90;3.60;;;;;;;;;;110344;1275;22103;-77
2023/06/02 08:03:21;;;;;;;11.50;4.10;;;;;;;;;;110565;1256;22111;-78
2023/06/02 08:05:48;;;;;;;12.70;4.00;;;;;;;;;;110209;1276;22884;-79
2023/06/02 08:08:24;;;;;;;13.10;4.70;;;;;;;;;;110508;1276;22086;-78
2023/06/02 08:10:51;;;;;;;12.60;4.50;;;;;;;;;;110460;1276;22186;-78
2023/06/02 08:13:20;;;;;;;12.80;4.30;;;;;;;;;;110580;1257;22140;-78
2023/06/02 08:15:49;;;;;;;11.60;4.20;;;;;;;;;;110504;1276;22133;-79
2023/06/02 08:18:19;;;;;;;12.90;4.10;;;;;;;;;;110450;1276;22754;-78
2023/06/02 08:20:45;;;;;;;11.40;3.60;;;;;;;;;;110506;1276;22577;-78
2023/06/02 08:23:17;;;;;;;11.30;3.80;;;;;;;;;;110367;1260;22338;-79
2023/06/02 08:25:44;;;;;;;16.20;4.80;;;;;;;;;;110461;1276;22888;-77
2023/06/02 08:28:13;;;;;;;11.40;4.20;;;;;;;;;;110524;1276;22119;-77
2023/06/02 08:30:46;;;;;;;10.40;3.50;;;;;;;;;;110246;1276;22079;-78
2023/06/02 08:33:13;;;;;;;10.50;3.00;;;;;;;;;;110510;1259;22115;-77
2023/06/02 08:35:40;;;;;;;9.00;2.90;;;;;;;;;;110505;1276;22748;-78
2023/06/02 08:38:07;;;;;;;10.30;2.80;;;;;;;;;;110442;1276;22127;-79
2023/06/02 08:40:36;;;;;;;10.30;2.90;;;;;;;;;;110463;1276;22097;-79
2023/06/02 08:43:09;;;;;;;11.30;3.30;;;;;;;;;;110336;1253;22812;-86
2023/06/02 08:45:38;;;;;;;11.50;3.10;;;;;;;;;;110319;1276;22129;-78
2023/06/02 08:48:06;;;;;;;10.50;3.20;;;;;;;;;;110465;1276;22517;-78
2023/06/02 08:50:39;;;;;;;9.20;2.90;;;;;;;;;;110288;1278;22096;-79
2023/06/02 08:53:10;;;;;;;10.00;3.10;;;;;;;;;;110196;1257;22808;-77
2023/06/02 08:55:39;;;;;;;9.70;3.40;;;;;;;;;;110145;1278;22545;-78
2023/06/02 08:58:15;;;;;;;13.80;3.70;;;;;;;;;;110288;1278;22211;-78
2023/06/02 09:00:42;;;;;;;10.20;3.10;;;;;;;;;;110278;1278;22104;-78
2023/06/02 09:03:12;;;;;;;13.70;3.20;;;;;;;;;;110284;1278;22891;-79
2023/06/02 09:05:39;;;;;;;9.50;2.80;;;;;;;;;;110384;1261;22838;-79
2023/06/02 09:08:15;;;;;;;10.40;3.40;;;;;;;;;;110167;1276;22105;-78
2023/06/02 09:10:44;;;;;;;9.00;2.80;;;;;;;;;;110375;1278;22957;-77
2023/06/02 09:13:27;;;;;;;9.70;2.90;;;;;;;;;;110219;1278;22105;-79
2023/06/02 09:15:57;;;;;;;9.40;3.20;;;;;;;;;;110221;1259;22867;-79
2023/06/02 09:18:27;;;;;;;11.90;3.60;;;;;;;;;;110407;1278;21943;-80
2023/06/02 09:20:54;;;;;;;14.10;5.20;;;;;;;;;;110406;1278;22093;-79
2023/06/02 09:23:21;;;;;;;12.20;3.80;;;;;;;;;;110303;1278;22742;-79
2023/06/02 09:25:48;;;;;;;11.40;3.40;;;;;;;;;;110538;1256;22120;-79
2023/06/02 09:28:18;;;;;;;13.10;3.60;;;;;;;;;;110193;1278;22114;-78
2023/06/02 09:30:47;;;;;;;11.30;3.00;;;;;;;;;;110263;1278;22078;-78
2023/06/02 09:33:14;;;;;;;9.90;2.90;;;;;;;;;;110315;1278;22400;-78
2023/06/02 09:35:44;;;;;;;9.30;2.90;;;;;;;;;;110507;1256;22296;-79
2023/06/02 09:38:20;;;;;;;11.20;3.00;;;;;;;;;;110274;1278;22101;-80
2023/06/02 09:41:13;;;;;;;13.00;3.20;;;;;;;;;;110294;1278;22128;-78
2023/06/02 09:43:40;;;;;;;10.60;3.00;;;;;;;;;;110182;1278;22066;-79
2023/06/02 09:46:19;;;;;;;9.50;2.70;;;;;;;;;;110514;1259;22083;-80
2023/06/02 09:49:04;;;;;;;8.60;2.90;;;;;;;;;;110385;1278;22188;-79
2023/06/02 09:51:32;;;;;;;10.80;3.10;;;;;;;;;;110229;1278;22712;-76
2023/06/02 09:54:09;;;;;;;11.20;2.70;;;;;;;;;;110383;1278;22265;-80
2023/06/02 09:56:37;;;;;;;13.10;3.20;;;;;;;;;;110600;1256;22144;-79
2023/06/02 09:59:22;;;;;;;;;;;;;;;;;;;;;
2023/06/02 10:02:11;;;;;;;13.10;3.70;;;;;;;;;;110210;1278;22132;-77
2023/06/02 10:04:37;;;;;;;10.50;3.30;;;;;;;;;;110383;1278;22040;-77
2023/06/02 10:07:34;;;;;;;11.40;3.10;;;;;;;;;;110505;1260;22142;-79
2023/06/02 10:10:13;;;;;;;11.10;3.00;;;;;;;;;;110384;1278;22704;-80
2023/06/02 10:13:02;;;;;;;12.70;3.00;;;;;;;;;;110324;1278;22119;-80
2023/06/02 10:15:32;;;;;;;12.70;3.20;;;;;;;;;;110237;1256;22144;-78
2023/06/02 10:18:08;;;;;;;10.30;3.40;;;;;;;;;;110207;1264;22131;-78
2023/06/02 10:20:56;;;;;;;13.00;3.20;;;;;;;;;;110380;1278;22182;-80
2023/06/02 10:23:44;;;;;;;14.60;3.40;;;;;;;;;;110358;1278;22126;-80
2023/06/02 10:26:49;;;;;;;12.60;3.10;;;;;;;;;;110480;1259;22131;-78
2023/06/02 10:29:18;;;;;;;12.60;3.50;;;;;;;;;;109977;1283;22155;-79
2023/06/02 10:31:46;;;;;;;10.30;2.90;;;;;;;;;;109945;1283;22173;-79
2023/06/02 10:34:35;;;;;;;10.60;2.90;;;;;;;;;;109946;1283;22178;-79
2023/06/02 10:37:13;;;;;;;10.00;3.00;;;;;;;;;;110201;1262;21988;-79
2023/06/02 10:39:46;;;;;;;11.50;3.20;;;;;;;;;;109966;1283;22127;-79
2023/06/02 10:42:14;;;;;;;10.00;2.90;;;;;;;;;;109920;1283;22155;-79
2023/06/02 10:44:41;;;;;;;11.80;2.90;;;;;;;;;;109948;1284;22159;-78
2023/06/02 10:47:17;;;;;;;11.30;3.00;;;;;;;;;;110001;1266;22923;-81
2023/06/02 10:49:53;;;;;;;10.20;3.10;;;;;;;;;;109921;1284;22143;-80
2023/06/02 10:52:23;;;;;;;10.90;3.20;;;;;;;;;;109873;1284;22156;-80
2023/06/02 10:55:09;;;;;;;11.30;3.40;;;;;;;;;;109945;1284;22198;-80
2023/06/02 10:57:51;;;;;;;12.70;3.20;;;;;;;;;;110106;1262;22838;-80
2023/06/02 11:00:31;;;;;;;10.60;3.50;;;;;;;;;;109974;1284;22156;-79
2023/06/02 11:02:59;;;;;;;9.00;3.10;;;;;;;;;;109981;1284;22009;-80
2023/06/02 11:05:30;;;;;;;11.10;3.30;;;;;;;;;;110017;1280;22093;-79
2023/06/02 11:08:21;;;;;;;11.30;3.10;;;;;;;;;;110465;1261;22126;-79
2023/06/02 11:10:55;;;;;;;11.20;3.40;;;;;;;;;;110222;1280;22164;-82
2023/06/02 11:13:22;;;;;;;9.60;2.70;;;;;;;;;;110123;1280;22126;-81
2023/06/02 11:15:59;;;;;;;11.90;3.10;;;;;;;;;;110218;1280;22816;-79
2023/06/02 11:18:31;;;;;;;9.30;3.30;;;;;;;;;;110506;1259;22191;-79
2023/06/02 11:21:02;;;;;;;9.80;3.10;;;;;;;;;;110206;1280;22119;-80
2023/06/02 11:23:33;;;;;;;9.10;3.10;;;;;;;;;;110133;1280;22155;-79
2023/06/02 11:26:01;;;;;;;10.40;3.10;;;;;;;;;;110133;1280;22003;-80
2023/06/02 11:28:28;;;;;;;11.00;3.50;;;;;;;;;;110439;1259;22120;-81
2023/06/02 11:31:07;;;;;;;14.80;4.00;;;;;;;;;;110107;1280;22129;-81
2023/06/02 11:33:34;;;;;;;11.90;3.40;;;;;;;;;;110234;1265;22140;-80
2023/06/02 11:36:02;;;;;;;18.80;4.20;;;;;;;;;;110103;1280;22061;-79
2023/06/02 11:38:31;;;;;;;10.20;4.00;;;;;;;;;;110388;1262;22126;-80
2023/06/02 11:41:11;;;;;;;14.70;4.70;;;;;;;;;;110209;1280;22765;-81
2023/06/02 11:43:39;;;;;;;15.00;4.10;;;;;;;;;;110114;1280;22141;-80
2023/06/02 11:46:08;;;;;;;13.60;4.10;;;;;;;;;;110194;1280;22125;-83
2023/06/02 11:48:40;;;;;;;9.60;3.30;;;;;;;;;;110283;1259;22131;-81
2023/06/02 11:51:10;;;;;;;11.80;3.60;;;;;;;;;;110111;1280;22094;-80
2023/06/02 11:53:49;;;;;;;13.80;3.40;;;;;;;;;;110057;1278;22356;-80
2023/06/02 11:56:18;;;;;;;13.40;3.10;;;;;;;;;;110131;1280;22880;-81
2023/06/02 11:58:48;;;;;;;10.20;3.20;;;;;;;;;;110348;1259;22116;-81
2023/06/02 12:01:21;;;;;;;15.70;3.00;;;;;;;;;;110151;1280;22099;-83
2023/06/02 12:04:11;;;;;;;10.90;3.50;;;;;;;;;;110143;1280;22352;-79
2023/06/02 12:06:47;;;;;;;13.40;3.60;;;;;;;;;;110165;1280;22090;-80
2023/06/02 12:09:21;;;;;;;11.80;3.50;;;;;;;;;;110438;1258;22181;-81
2023/06/02 12:11:55;;;;;;;10.30;3.50;;;;;;;;;;110169;1280;22110;-80
2023/06/02 12:14:40;;;;;;;10.90;3.50;;;;;;;;;;109949;1283;22135;-83
2023/06/02 12:17:09;;;;;;;14.00;3.90;;;;;;;;;;109964;1283;22143;-82
2023/06/02 12:19:39;;;;;;;10.20;3.80;;;;;;;;;;109995;1261;22214;-81
2023/06/02 12:22:10;;;;;;;10.50;3.80;;;;;;;;;;109973;1273;22155;-80
2023/06/02 12:24:39;;;;;;;13.40;4.00;;;;;;;;;;109967;1283;22133;-81
2023/06/02 12:27:08;;;;;;;12.60;4.20;;;;;;;;;;109965;1283;22196;-83
2023/06/02 12:29:37;;;;;;;9.90;4.10;;;;;;;;;;110071;1262;22646;-81
2023/06/02 12:32:11;;;;;;;11.60;4.20;;;;;;;;;;109955;1283;22739;-81
2023/06/02 12:34:41;;;;;;;10.40;4.10;;;;;;;;;;109917;1283;22154;-81
2023/06/02 12:37:15;;;;;;;14.70;5.10;;;;;;;;;;109951;1283;22133;-81
2023/06/02 12:39:45;;;;;;;11.00;4.10;;;;;;;;;;110147;1262;22253;-82
2023/06/02 12:42:18;;;;;;;11.30;4.50;;;;;;;;;;109971;1283;22146;-82
2023/06/02 12:44:49;;;;;;;15.20;5.00;;;;;;;;;;109975;1280;22127;-83
2023/06/02 12:47:21;;;;;;;14.60;5.20;;;;;;;;;;110112;1270;22112;-81
2023/06/02 12:56:58;;;;;;;11.90;4.60;;;;;;;;;;104508;1287;544820;-83
2023/06/02 12:59:28;;;;;;;10.20;4.50;;;;;;;;;;106324;1287;22553;-83
2023/06/02 13:01:58;;;;;;;9.20;4.10;;;;;;;;;;106101;1287;25370;-84
2023/06/02 13:04:27;;;;;;;12.90;5.20;;;;;;;;;;106364;1287;22659;-81
2023/06/02 13:07:02;;;;;;;10.90;4.50;;;;;;;;;;106461;1267;25427;-83
2023/06/02 13:20:06;;;;;;;11.10;5.30;;;;;;;;;;104032;1292;547442;-82
2023/06/02 13:22:35;;;;;;;12.30;5.70;;;;;;;;;;106401;1281;22571;-83
2023/06/02 13:25:02;;;;;;;10.10;5.20;;;;;;;;;;106561;1281;22584;-85
2023/06/02 13:27:33;;;;;;;10.80;4.80;;;;;;;;;;106678;1281;25275;-84
2023/06/02 13:30:02;;;;;;;13.00;5.70;;;;;;;;;;106486;1275;24208;-81
2023/06/02 13:32:28;;;;;;;11.60;5.60;;;;;;;;;;104296;1280;3091256;-86
2023/06/02 13:34:59;;;;;;;12.10;5.80;;;;;;;;;;106546;1280;22504;-80
2023/06/02 13:37:26;;;;;;;11.10;6.00;;;;;;;;;;106539;1275;22574;-80
2023/06/02 13:39:53;;;;;;;10.60;5.60;;;;;;;;;;106678;1264;22607;-83
2023/06/02 13:42:19;;;;;;;14.00;6.30;;;;;;;;;;106863;1273;22543;-86
2023/06/02 13:44:48;;;;;;;11.70;6.20;;;;;;;;;;106861;1276;22549;-81
2023/06/02 13:47:15;;;;;;;12.20;6.10;;;;;;;;;;106797;1275;26109;-81
2023/06/02 13:49:41;;;;;;;12.90;6.50;;;;;;;;;;106753;1263;23886;-84
2023/06/02 13:52:08;;;;;;;11.20;6.30;;;;;;;;;;106587;1281;22558;-82
2023/06/02 13:54:34;;;;;;;13.90;5.80;;;;;;;;;;106571;1281;22662;-82
2023/06/02 13:57:01;;;;;;;11.80;6.40;;;;;;;;;;106833;1277;22550;-86
2023/06/02 13:59:27;;;;;;;11.60;6.20;;;;;;;;;;106852;1275;22618;-80
2023/06/02 14:01:53;;;;;;;11.10;6.50;;;;;;;;;;106966;1275;24222;-86
2023/06/02 14:04:25;;;;;;;10.90;6.20;;;;;;;;;;106945;1275;25281;-84
2023/06/02 14:06:52;;;;;;;12.30;5.90;;;;;;;;;;107199;1254;22532;-86
2023/06/02 14:09:19;;;;;;;11.20;6.10;;;;;;;;;;106969;1275;24544;-79
2023/06/02 14:11:45;;;;;;;11.00;6.10;;;;;;;;;;106568;1262;24199;-82
2023/06/02 14:14:17;;;;;;;10.10;5.40;;;;;;;;;;106888;1276;25350;-83
2023/06/02 14:16:49;;;;;;;11.10;5.20;;;;;;;;;;107001;1275;22537;-87
2023/06/02 14:19:17;;;;;;;9.90;5.30;;;;;;;;;;107020;1276;22570;-81
2023/06/02 14:21:43;;;;;;;11.90;5.60;;;;;;;;;;106676;1275;25268;-81
2023/06/02 14:24:10;;;;;;;10.10;4.90;;;;;;;;;;106931;1275;24630;-83
2023/06/02 14:26:36;;;;;;;10.50;5.80;;;;;;;;;;106917;1275;22602;-83
2023/06/02 14:29:05;;;;;;;9.90;4.90;;;;;;;;;;106983;1275;25281;-84
2023/06/02 14:31:34;;;;;;;12.80;5.20;;;;;;;;;;107082;1259;25277;-81
2023/06/02 14:34:02;;;;;;;11.50;5.00;;;;;;;;;;106879;1276;25518;-81
2023/06/02 14:36:28;;;;;;;10.40;5.10;;;;;;;;;;106948;1276;24340;-80
2023/06/02 14:38:54;;;;;;;9.70;5.30;;;;;;;;;;107001;1270;24192;-82
2023/06/02 14:41:22;;;;;;;10.80;4.80;;;;;;;;;;106819;1259;22746;-83
2023/06/02 14:43:49;;;;;;;12.40;4.90;;;;;;;;;;106936;1276;24214;-80
2023/06/02 14:53:30;;;;;;;9.10;4.20;;;;;;;;;;104849;1295;544788;-80
2023/06/02 14:55:58;;;;;;;8.40;3.60;;;;;;;;;;106171;1285;22537;-83
2023/06/02 14:58:28;;;;;;;7.70;3.60;;;;;;;;;;106196;1282;22967;-80
2023/06/02 15:01:02;;;;;;;10.20;3.60;;;;;;;;;;106272;1280;23120;-81
2023/06/02 15:03:35;;;;;;;8.80;2.90;;;;;;;;;;106453;1270;22656;-82
2023/06/02 15:06:04;;;;;;;9.00;2.80;;;;;;;;;;102273;1285;5258091;-80
2023/06/02 15:08:34;;;;;;;9.80;2.90;;;;;;;;;;106544;1283;22563;-79
2023/06/02 15:11:10;;;;;;;13.50;3.60;;;;;;;;;;106641;1284;24425;-78
2023/06/02 15:13:57;;;;;;;12.70;3.70;;;;;;;;;;106428;1266;24249;-79
2023/06/02 15:17:03;;;;;;;10.30;4.10;;;;;;;;;;106455;1284;22946;-84
2023/06/02 15:19:43;;;;;;;10.00;3.30;;;;;;;;;;106518;1282;25596;-82
2023/06/02 15:22:16;;;;;;;12.00;3.20;;;;;;;;;;106434;1283;23869;-84
2023/06/02 15:25:27;;;;;;;7.40;2.60;;;;;;;;;;106553;1274;25524;-85
2023/06/02 15:28:03;;;;;;;6.90;2.40;;;;;;;;;;106580;1282;23877;-85
2023/06/02 15:30:35;;;;;;;8.00;2.50;;;;;;;;;;106485;1282;22527;-80
2023/06/02 15:33:05;;;;;;;16.30;4.40;;;;;;;;;;106371;1284;22611;-79
2023/06/02 15:35:38;;;;;;;8.40;2.60;;;;;;;;;;106356;1266;22536;-83
2023/06/02 15:38:04;;;;;;;43.80;11.60;;;;;;;;;;106398;1284;24203;-86
2023/06/02 15:40:31;;;;;;;7.60;2.90;;;;;;;;;;106436;1282;22543;-78